sensor_id;sensor_type;location;lat;lon;timestamp;pressure;altitude;pressure_sealevel;temperature;humidity
9831;BME280;4954;48.476;8.168;2024-03-08T00:00:00;98164.06;;;3.49;nan
9831;BME280;4954;48.476;8.168;2024-03-08T00:02:35;98164.91;;;3.49;nan
9831;BME280;4954;48.476;8.168;2024-03-08T00:05:03;98163.16;;;3.47;nan
9831;BME280;4954;48.476;8.168;2024-03-08T00:07:31;98166.34;;;3.41;nan
9831;BME280;4954;48.476;8.168;2024-03-08T00:09:58;98164.53;;;3.37;nan
9831;BME280;4954;48.476;8.168;2024-03-08T00:12:25;98157.97;;;3.42;nan
9831;BME280;4954;48.476;8.168;2024-03-08T00:14:53;98165.16;;;3.32;nan
9831;BME280;4954;48.476;8.168;2024-03-08T00:17:20;98157.47;;;3.27;nan
9831;BME280;4954;48.476;8.168;2024-03-08T00:19:49;98161.56;;;3.24;nan
9831;BME280;4954;48.476;8.168;2024-03-08T00:22:16;98166.47;;;3.21;nan
9831;BME280;4954;48.476;8.168;2024-03-08T00:24:43;98169.00;;;3.21;nan
9831;BME280;4954;48.476;8.168;2024-03-08T00:27:10;98166.03;;;3.32;nan
9831;BME280;4954;48.476;8.168;2024-03-08T00:29:37;98152.91;;;3.41;nan
9831;BME280;4954;48.476;8.168;2024-03-08T00:32:06;98159.59;;;3.40;nan
9831;BME280;4954;48.476;8.168;2024-03-08T00:34:35;98151.84;;;3.34;nan
9831;BME280;4954;48.476;8.168;2024-03-08T00:37:03;98150.00;;;3.29;nan
9831;BME280;4954;48.476;8.168;2024-03-08T00:39:30;98146.44;;;3.22;nan
9831;BME280;4954;48.476;8.168;2024-03-08T00:41:58;98146.44;;;3.22;nan
9831;BME280;4954;48.476;8.168;2024-03-08T00:44:24;98143.59;;;3.38;nan
9831;BME280;4954;48.476;8.168;2024-03-08T00:46:51;98138.16;;;3.51;nan
9831;BME280;4954;48.476;8.168;2024-03-08T00:49:20;98141.63;;;3.55;nan
9831;BME280;4954;48.476;8.168;2024-03-08T00:51:48;98143.91;;;3.47;nan
9831;BME280;4954;48.476;8.168;2024-03-08T00:54:15;98136.81;;;3.36;nan
9831;BME280;4954;48.476;8.168;2024-03-08T00:56:42;98132.28;;;3.26;nan
9831;BME280;4954;48.476;8.168;2024-03-08T00:59:11;98132.22;;;3.23;nan
9831;BME280;4954;48.476;8.168;2024-03-08T01:01:39;98126.94;;;3.17;nan
9831;BME280;4954;48.476;8.168;2024-03-08T01:04:06;98116.66;;;3.09;nan
9831;BME280;4954;48.476;8.168;2024-03-08T01:06:35;98119.66;;;2.99;nan
9831;BME280;4954;48.476;8.168;2024-03-08T01:09:02;98117.16;;;2.99;nan
9831;BME280;4954;48.476;8.168;2024-03-08T01:11:32;98111.81;;;2.90;nan
9831;BME280;4954;48.476;8.168;2024-03-08T01:13:59;98114.31;;;2.89;nan
9831;BME280;4954;48.476;8.168;2024-03-08T01:16:26;98106.91;;;2.93;nan
9831;BME280;4954;48.476;8.168;2024-03-08T01:18:53;98101.19;;;2.97;nan
9831;BME280;4954;48.476;8.168;2024-03-08T01:21:20;98099.50;;;2.97;nan
9831;BME280;4954;48.476;8.168;2024-03-08T01:23:49;98102.56;;;2.89;nan
9831;BME280;4954;48.476;8.168;2024-03-08T01:26:18;98089.63;;;2.77;nan
9831;BME280;4954;48.476;8.168;2024-03-08T01:28:49;98094.47;;;2.72;nan
9831;BME280;4954;48.476;8.168;2024-03-08T01:31:16;98099.94;;;2.61;nan
9831;BME280;4954;48.476;8.168;2024-03-08T01:33:42;98093.94;;;2.58;nan
9831;BME280;4954;48.476;8.168;2024-03-08T01:36:09;98095.66;;;2.59;nan
9831;BME280;4954;48.476;8.168;2024-03-08T01:38:40;98084.44;;;2.49;nan
9831;BME280;4954;48.476;8.168;2024-03-08T01:41:08;98083.69;;;2.52;nan
9831;BME280;4954;48.476;8.168;2024-03-08T01:43:35;98090.16;;;2.45;nan
9831;BME280;4954;48.476;8.168;2024-03-08T01:46:03;98081.59;;;2.40;nan
9831;BME280;4954;48.476;8.168;2024-03-08T01:48:30;98080.03;;;2.42;nan
9831;BME280;4954;48.476;8.168;2024-03-08T01:50:57;98070.47;;;2.32;nan
9831;BME280;4954;48.476;8.168;2024-03-08T01:53:26;98075.94;;;2.22;nan
9831;BME280;4954;48.476;8.168;2024-03-08T01:55:57;98072.31;;;2.14;nan
9831;BME280;4954;48.476;8.168;2024-03-08T01:58:27;98067.16;;;2.11;nan
9831;BME280;4954;48.476;8.168;2024-03-08T02:00:56;98059.75;;;2.14;nan
9831;BME280;4954;48.476;8.168;2024-03-08T02:03:23;98061.84;;;2.02;nan
9831;BME280;4954;48.476;8.168;2024-03-08T02:05:50;98062.94;;;2.10;nan
9831;BME280;4954;48.476;8.168;2024-03-08T02:08:18;98061.72;;;1.99;nan
9831;BME280;4954;48.476;8.168;2024-03-08T02:10:48;98057.84;;;1.85;nan
9831;BME280;4954;48.476;8.168;2024-03-08T02:13:16;98052.69;;;1.82;nan
9831;BME280;4954;48.476;8.168;2024-03-08T02:15:51;98049.88;;;1.73;nan
9831;BME280;4954;48.476;8.168;2024-03-08T02:18:19;98045.81;;;1.77;nan
9831;BME280;4954;48.476;8.168;2024-03-08T02:20:48;98046.44;;;1.71;nan
9831;BME280;4954;48.476;8.168;2024-03-08T02:23:15;98040.41;;;1.66;nan
9831;BME280;4954;48.476;8.168;2024-03-08T02:25:43;98039.50;;;1.64;nan
9831;BME280;4954;48.476;8.168;2024-03-08T02:28:11;98034.19;;;1.57;nan
9831;BME280;4954;48.476;8.168;2024-03-08T02:30:39;98034.94;;;1.54;nan
9831;BME280;4954;48.476;8.168;2024-03-08T02:33:06;98027.22;;;1.49;nan
9831;BME280;4954;48.476;8.168;2024-03-08T02:35:35;98032.25;;;1.49;nan
9831;BME280;4954;48.476;8.168;2024-03-08T02:38:04;98031.50;;;1.52;nan
9831;BME280;4954;48.476;8.168;2024-03-08T02:40:31;98024.56;;;1.45;nan
9831;BME280;4954;48.476;8.168;2024-03-08T02:42:57;98027.88;;;1.44;nan
9831;BME280;4954;48.476;8.168;2024-03-08T02:45:24;98023.66;;;1.43;nan
9831;BME280;4954;48.476;8.168;2024-03-08T02:47:51;98013.63;;;1.43;nan
9831;BME280;4954;48.476;8.168;2024-03-08T02:50:18;98014.19;;;1.36;nan
9831;BME280;4954;48.476;8.168;2024-03-08T02:52:45;98012.56;;;1.37;nan
9831;BME280;4954;48.476;8.168;2024-03-08T02:55:14;98014.19;;;1.36;nan
9831;BME280;4954;48.476;8.168;2024-03-08T02:57:41;98016.69;;;1.36;nan
9831;BME280;4954;48.476;8.168;2024-03-08T03:00:09;98006.56;;;1.33;nan
9831;BME280;4954;48.476;8.168;2024-03-08T03:02:38;98009.31;;;1.39;nan
9831;BME280;4954;48.476;8.168;2024-03-08T03:05:05;98008.94;;;1.52;nan
9831;BME280;4954;48.476;8.168;2024-03-08T03:07:35;98015.03;;;1.58;nan
9831;BME280;4954;48.476;8.168;2024-03-08T03:10:03;98013.06;;;1.50;nan
9831;BME280;4954;48.476;8.168;2024-03-08T03:12:33;98007.91;;;1.47;nan
9831;BME280;4954;48.476;8.168;2024-03-08T03:15:00;97998.34;;;1.37;nan
9831;BME280;4954;48.476;8.168;2024-03-08T03:17:27;98000.81;;;1.36;nan
9831;BME280;4954;48.476;8.168;2024-03-08T03:19:54;97994.03;;;1.33;nan
9831;BME280;4954;48.476;8.168;2024-03-08T03:22:21;98003.25;;;1.34;nan
9831;BME280;4954;48.476;8.168;2024-03-08T03:24:48;97989.72;;;1.29;nan
9831;BME280;4954;48.476;8.168;2024-03-08T03:27:17;97990.81;;;1.37;nan
9831;BME280;4954;48.476;8.168;2024-03-08T03:29:46;97989.81;;;1.32;nan
9831;BME280;4954;48.476;8.168;2024-03-08T03:32:15;97994.13;;;1.36;nan
9831;BME280;4954;48.476;8.168;2024-03-08T03:34:44;97981.44;;;1.32;nan
9831;BME280;4954;48.476;8.168;2024-03-08T03:37:11;97984.78;;;1.32;nan
9831;BME280;4954;48.476;8.168;2024-03-08T03:39:39;97979.09;;;1.36;nan
9831;BME280;4954;48.476;8.168;2024-03-08T03:42:15;97980.72;;;1.34;nan
9831;BME280;4954;48.476;8.168;2024-03-08T03:44:44;97981.38;;;1.30;nan
9831;BME280;4954;48.476;8.168;2024-03-08T03:47:12;97977.66;;;1.20;nan
9831;BME280;4954;48.476;8.168;2024-03-08T03:49:40;97978.81;;;1.28;nan
9831;BME280;4954;48.476;8.168;2024-03-08T03:52:08;97978.00;;;1.29;nan
9831;BME280;4954;48.476;8.168;2024-03-08T03:54:35;97975.22;;;1.22;nan
9831;BME280;4954;48.476;8.168;2024-03-08T03:57:03;97969.13;;;1.15;nan
9831;BME280;4954;48.476;8.168;2024-03-08T03:59:30;97971.47;;;1.11;nan
9831;BME280;4954;48.476;8.168;2024-03-08T04:01:57;97979.13;;;1.15;nan
9831;BME280;4954;48.476;8.168;2024-03-08T04:04:25;97965.66;;;1.12;nan
9831;BME280;4954;48.476;8.168;2024-03-08T04:06:52;97965.19;;;1.00;nan
9831;BME280;4954;48.476;8.168;2024-03-08T04:09:19;97959.94;;;0.94;nan
9831;BME280;4954;48.476;8.168;2024-03-08T04:11:47;97960.38;;;0.84;nan
9831;BME280;4954;48.476;8.168;2024-03-08T04:14:15;97956.72;;;0.76;nan
9831;BME280;4954;48.476;8.168;2024-03-08T04:16:42;97963.34;;;0.74;nan
9831;BME280;4954;48.476;8.168;2024-03-08T04:19:09;97958.94;;;0.68;nan
9831;BME280;4954;48.476;8.168;2024-03-08T04:21:37;97954.78;;;0.69;nan
9831;BME280;4954;48.476;8.168;2024-03-08T04:24:04;97955.44;;;0.65;nan
9831;BME280;4954;48.476;8.168;2024-03-08T04:26:32;97946.34;;;0.67;nan
9831;BME280;4954;48.476;8.168;2024-03-08T04:28:59;97948.84;;;0.67;nan
9831;BME280;4954;48.476;8.168;2024-03-08T04:31:26;97952.00;;;0.63;nan
9831;BME280;4954;48.476;8.168;2024-03-08T04:33:53;97943.47;;;0.58;nan
9831;BME280;4954;48.476;8.168;2024-03-08T04:36:20;97949.84;;;0.50;nan
9831;BME280;4954;48.476;8.168;2024-03-08T04:38:49;97948.25;;;0.52;nan
9831;BME280;4954;48.476;8.168;2024-03-08T04:41:16;97945.38;;;0.43;nan
9831;BME280;4954;48.476;8.168;2024-03-08T04:43:43;97950.00;;;0.34;nan
9831;BME280;4954;48.476;8.168;2024-03-08T04:46:10;97947.63;;;0.37;nan
9831;BME280;4954;48.476;8.168;2024-03-08T04:48:38;97944.38;;;0.39;nan
9831;BME280;4954;48.476;8.168;2024-03-08T04:51:07;97944.16;;;0.33;nan
9831;BME280;4954;48.476;8.168;2024-03-08T04:53:34;97939.06;;;0.32;nan
9831;BME280;4954;48.476;8.168;2024-03-08T04:56:03;97942.56;;;0.35;nan
9831;BME280;4954;48.476;8.168;2024-03-08T04:58:32;97937.44;;;0.32;nan
9831;BME280;4954;48.476;8.168;2024-03-08T05:01:00;97934.63;;;0.25;nan
9831;BME280;4954;48.476;8.168;2024-03-08T05:03:27;97939.25;;;0.16;nan
9831;BME280;4954;48.476;8.168;2024-03-08T05:05:55;97941.63;;;0.13;nan
9831;BME280;4954;48.476;8.168;2024-03-08T05:08:22;97934.25;;;0.16;nan
9831;BME280;4954;48.476;8.168;2024-03-08T05:10:49;97937.41;;;0.12;nan
9831;BME280;4954;48.476;8.168;2024-03-08T05:13:17;97933.31;;;0.14;nan
9831;BME280;4954;48.476;8.168;2024-03-08T05:15:48;97924.91;;;0.12;nan
9831;BME280;4954;48.476;8.168;2024-03-08T05:18:15;97924.34;;;0.19;nan
9831;BME280;4954;48.476;8.168;2024-03-08T05:20:42;97921.06;;;0.20;nan
9831;BME280;4954;48.476;8.168;2024-03-08T05:23:09;97925.16;;;0.18;nan
9831;BME280;4954;48.476;8.168;2024-03-08T05:25:36;97920.03;;;0.15;nan
9831;BME280;4954;48.476;8.168;2024-03-08T05:28:03;97929.00;;;0.10;nan
9831;BME280;4954;48.476;8.168;2024-03-08T05:30:32;97926.44;;;0.08;nan
9831;BME280;4954;48.476;8.168;2024-03-08T05:33:01;97919.72;;;0.08;nan
9831;BME280;4954;48.476;8.168;2024-03-08T05:35:29;97923.38;;;0.15;nan
9831;BME280;4954;48.476;8.168;2024-03-08T05:37:56;97932.41;;;0.12;nan
9831;BME280;4954;48.476;8.168;2024-03-08T05:40:23;97920.78;;;0.13;nan
9831;BME280;4954;48.476;8.168;2024-03-08T05:42:50;97916.53;;;0.11;nan
9831;BME280;4954;48.476;8.168;2024-03-08T05:45:17;97922.41;;;0.12;nan
9831;BME280;4954;48.476;8.168;2024-03-08T05:47:45;97914.34;;;0.19;nan
9831;BME280;4954;48.476;8.168;2024-03-08T05:50:12;97925.22;;;0.19;nan
9831;BME280;4954;48.476;8.168;2024-03-08T05:52:41;97919.97;;;0.13;nan
9831;BME280;4954;48.476;8.168;2024-03-08T05:55:08;97919.31;;;0.17;nan
9831;BME280;4954;48.476;8.168;2024-03-08T05:57:35;97923.59;;;0.20;nan
9831;BME280;4954;48.476;8.168;2024-03-08T06:00:06;97918.44;;;0.17;nan
9831;BME280;4954;48.476;8.168;2024-03-08T06:02:33;97914.09;;;0.13;nan
9831;BME280;4954;48.476;8.168;2024-03-08T06:05:03;97916.59;;;0.13;nan
9831;BME280;4954;48.476;8.168;2024-03-08T06:07:31;97915.69;;;0.11;nan
9831;BME280;4954;48.476;8.168;2024-03-08T06:09:58;97920.03;;;0.15;nan
9831;BME280;4954;48.476;8.168;2024-03-08T06:12:25;97919.34;;;0.19;nan
9831;BME280;4954;48.476;8.168;2024-03-08T06:14:54;97919.63;;;0.25;nan
9831;BME280;4954;48.476;8.168;2024-03-08T06:17:21;97914.00;;;0.30;nan
9831;BME280;4954;48.476;8.168;2024-03-08T06:19:50;97916.50;;;0.30;nan
9831;BME280;4954;48.476;8.168;2024-03-08T06:22:21;97914.19;;;0.35;nan
9831;BME280;4954;48.476;8.168;2024-03-08T06:24:47;97913.41;;;0.36;nan
9831;BME280;4954;48.476;8.168;2024-03-08T06:27:14;97918.56;;;0.40;nan
9831;BME280;4954;48.476;8.168;2024-03-08T06:29:42;97910.31;;;0.43;nan
9831;BME280;4954;48.476;8.168;2024-03-08T06:32:10;97918.13;;;0.50;nan
9831;BME280;4954;48.476;8.168;2024-03-08T06:34:37;97916.66;;;0.55;nan
9831;BME280;4954;48.476;8.168;2024-03-08T06:37:04;97925.28;;;0.62;nan
9831;BME280;4954;48.476;8.168;2024-03-08T06:39:33;97929.56;;;0.64;nan
9831;BME280;4954;48.476;8.168;2024-03-08T06:42:01;97917.34;;;0.72;nan
9831;BME280;4954;48.476;8.168;2024-03-08T06:44:30;97916.00;;;0.80;nan
9831;BME280;4954;48.476;8.168;2024-03-08T06:46:58;97923.16;;;0.93;nan
9831;BME280;4954;48.476;8.168;2024-03-08T06:49:25;97927.84;;;1.06;nan
9831;BME280;4954;48.476;8.168;2024-03-08T06:51:52;97915.88;;;1.21;nan
9831;BME280;4954;48.476;8.168;2024-03-08T06:54:21;97915.75;;;1.40;nan
9831;BME280;4954;48.476;8.168;2024-03-08T06:56:54;97912.03;;;1.52;nan
9831;BME280;4954;48.476;8.168;2024-03-08T06:59:28;97912.03;;;1.76;nan
9831;BME280;4954;48.476;8.168;2024-03-08T07:01:55;97913.59;;;2.21;nan
9831;BME280;4954;48.476;8.168;2024-03-08T07:04:22;97904.66;;;3.07;nan
9831;BME280;4954;48.476;8.168;2024-03-08T07:06:52;97904.16;;;4.09;nan
9831;BME280;4954;48.476;8.168;2024-03-08T07:09:19;97896.53;;;5.09;nan
9831;BME280;4954;48.476;8.168;2024-03-08T07:11:45;97897.25;;;5.82;nan
9831;BME280;4954;48.476;8.168;2024-03-08T07:14:18;97888.88;;;6.81;nan
9831;BME280;4954;48.476;8.168;2024-03-08T07:16:47;97882.56;;;7.77;nan
9831;BME280;4954;48.476;8.168;2024-03-08T07:19:14;97874.81;;;8.38;nan
9831;BME280;4954;48.476;8.168;2024-03-08T07:21:41;97871.94;;;9.05;nan
9831;BME280;4954;48.476;8.168;2024-03-08T07:24:08;97864.63;;;9.64;nan
9831;BME280;4954;48.476;8.168;2024-03-08T07:26:53;97852.97;;;10.50;nan
9831;BME280;4954;48.476;8.168;2024-03-08T07:29:22;97860.56;;;11.20;nan
9831;BME280;4954;48.476;8.168;2024-03-08T07:31:49;97851.69;;;12.17;nan
9831;BME280;4954;48.476;8.168;2024-03-08T07:34:26;97852.03;;;12.84;nan
9831;BME280;4954;48.476;8.168;2024-03-08T07:36:55;97846.81;;;12.96;nan
9831;BME280;4954;48.476;8.168;2024-03-08T07:39:22;97846.84;;;12.91;nan
9831;BME280;4954;48.476;8.168;2024-03-08T07:41:50;97845.75;;;13.19;nan
9831;BME280;4954;48.476;8.168;2024-03-08T07:44:17;97844.66;;;13.44;nan
9831;BME280;4954;48.476;8.168;2024-03-08T07:46:46;97840.25;;;14.17;nan
9831;BME280;4954;48.476;8.168;2024-03-08T07:49:13;97832.81;;;14.60;nan
9831;BME280;4954;48.476;8.168;2024-03-08T07:51:40;97835.63;;;15.43;nan
9831;BME280;4954;48.476;8.168;2024-03-08T07:54:08;97830.34;;;15.92;nan
9831;BME280;4954;48.476;8.168;2024-03-08T07:56:35;97827.06;;;16.63;nan
9831;BME280;4954;48.476;8.168;2024-03-08T07:59:03;97824.28;;;17.04;nan
9831;BME280;4954;48.476;8.168;2024-03-08T08:01:30;97818.63;;;16.58;nan
9831;BME280;4954;48.476;8.168;2024-03-08T08:03:59;97818.22;;;17.38;nan
9831;BME280;4954;48.476;8.168;2024-03-08T08:06:27;97825.44;;;17.56;nan
9831;BME280;4954;48.476;8.168;2024-03-08T08:08:57;97815.41;;;17.47;nan
9831;BME280;4954;48.476;8.168;2024-03-08T08:11:26;97820.50;;;17.50;nan
9831;BME280;4954;48.476;8.168;2024-03-08T08:13:53;97820.84;;;17.96;nan
9831;BME280;4954;48.476;8.168;2024-03-08T08:16:20;97814.53;;;18.06;nan
9831;BME280;4954;48.476;8.168;2024-03-08T08:18:47;97810.69;;;18.48;nan
9831;BME280;4954;48.476;8.168;2024-03-08T08:21:15;97805.75;;;18.93;nan
9831;BME280;4954;48.476;8.168;2024-03-08T08:23:43;97803.03;;;18.97;nan
9831;BME280;4954;48.476;8.168;2024-03-08T08:26:10;97798.59;;;18.50;nan
9831;BME280;4954;48.476;8.168;2024-03-08T08:28:37;97799.22;;;17.74;nan
9831;BME280;4954;48.476;8.168;2024-03-08T08:31:06;97800.72;;;17.20;nan
9831;BME280;4954;48.476;8.168;2024-03-08T08:33:33;97803.81;;;16.67;nan
9831;BME280;4954;48.476;8.168;2024-03-08T08:36:00;97795.69;;;16.50;nan
9831;BME280;4954;48.476;8.168;2024-03-08T08:38:30;97799.59;;;16.28;nan
9831;BME280;4954;48.476;8.168;2024-03-08T08:40:57;97792.66;;;17.64;nan
9831;BME280;4954;48.476;8.168;2024-03-08T08:43:24;97799.63;;;17.29;nan
9831;BME280;4954;48.476;8.168;2024-03-08T08:45:52;97814.44;;;16.14;nan
9831;BME280;4954;48.476;8.168;2024-03-08T08:48:20;97803.44;;;16.09;nan
9831;BME280;4954;48.476;8.168;2024-03-08T08:50:48;97792.34;;;17.12;nan
9831;BME280;4954;48.476;8.168;2024-03-08T08:53:18;97792.19;;;18.08;nan
9831;BME280;4954;48.476;8.168;2024-03-08T08:55:46;97791.38;;;17.77;nan
9831;BME280;4954;48.476;8.168;2024-03-08T08:58:13;97792.19;;;17.18;nan
9831;BME280;4954;48.476;8.168;2024-03-08T09:00:40;97790.44;;;18.36;nan
9831;BME280;4954;48.476;8.168;2024-03-08T09:03:07;97794.97;;;17.43;nan
9831;BME280;4954;48.476;8.168;2024-03-08T09:05:34;97791.06;;;16.96;nan
9831;BME280;4954;48.476;8.168;2024-03-08T09:08:03;97791.59;;;17.70;nan
9831;BME280;4954;48.476;8.168;2024-03-08T09:10:30;97783.63;;;18.87;nan
9831;BME280;4954;48.476;8.168;2024-03-08T09:12:58;97786.22;;;19.36;nan
9831;BME280;4954;48.476;8.168;2024-03-08T09:15:25;97786.72;;;19.21;nan
9831;BME280;4954;48.476;8.168;2024-03-08T09:17:53;97785.25;;;19.85;nan
9831;BME280;4954;48.476;8.168;2024-03-08T09:20:20;97791.28;;;19.62;nan
9831;BME280;4954;48.476;8.168;2024-03-08T09:22:48;97789.31;;;19.46;nan
9831;BME280;4954;48.476;8.168;2024-03-08T09:25:14;97784.91;;;19.25;nan
9831;BME280;4954;48.476;8.168;2024-03-08T09:27:41;97782.56;;;19.17;nan
9831;BME280;4954;48.476;8.168;2024-03-08T09:30:11;97782.91;;;19.33;nan
9831;BME280;4954;48.476;8.168;2024-03-08T09:32:38;97776.72;;;18.08;nan
9831;BME280;4954;48.476;8.168;2024-03-08T09:35:07;97781.59;;;18.17;nan
9831;BME280;4954;48.476;8.168;2024-03-08T09:37:34;97762.56;;;19.71;nan
9831;BME280;4954;48.476;8.168;2024-03-08T09:40:01;97753.69;;;20.23;nan
9831;BME280;4954;48.476;8.168;2024-03-08T09:42:34;97752.66;;;20.68;nan
9831;BME280;4954;48.476;8.168;2024-03-08T09:45:04;97749.34;;;20.85;nan
9831;BME280;4954;48.476;8.168;2024-03-08T09:47:39;97750.78;;;21.70;nan
9831;BME280;4954;48.476;8.168;2024-03-08T09:50:09;97746.88;;;22.70;nan
9831;BME280;4954;48.476;8.168;2024-03-08T09:52:38;97738.88;;;21.28;nan
9831;BME280;4954;48.476;8.168;2024-03-08T09:55:06;97751.00;;;18.86;nan
9831;BME280;4954;48.476;8.168;2024-03-08T09:57:36;97744.78;;;18.92;nan
9831;BME280;4954;48.476;8.168;2024-03-08T10:00:04;97749.97;;;18.90;nan
9831;BME280;4954;48.476;8.168;2024-03-08T10:02:46;97744.22;;;18.84;nan
9831;BME280;4954;48.476;8.168;2024-03-08T10:05:14;97729.72;;;20.81;nan
9831;BME280;4954;48.476;8.168;2024-03-08T10:07:40;97731.59;;;21.56;nan
9831;BME280;4954;48.476;8.168;2024-03-08T10:10:08;97727.72;;;21.07;nan
9831;BME280;4954;48.476;8.168;2024-03-08T10:12:37;97736.34;;;20.03;nan
9831;BME280;4954;48.476;8.168;2024-03-08T10:15:06;97728.81;;;20.20;nan
9831;BME280;4954;48.476;8.168;2024-03-08T10:17:35;97724.16;;;21.30;nan
9831;BME280;4954;48.476;8.168;2024-03-08T10:20:04;97722.44;;;21.86;nan
9831;BME280;4954;48.476;8.168;2024-03-08T10:22:41;97721.06;;;21.02;nan
9831;BME280;4954;48.476;8.168;2024-03-08T10:25:10;97714.19;;;21.96;nan
9831;BME280;4954;48.476;8.168;2024-03-08T10:27:38;97704.47;;;21.26;nan
9831;BME280;4954;48.476;8.168;2024-03-08T10:30:08;97708.00;;;21.99;nan
9831;BME280;4954;48.476;8.168;2024-03-08T10:32:40;97706.44;;;22.13;nan
9831;BME280;4954;48.476;8.168;2024-03-08T10:35:09;97698.22;;;21.87;nan
9831;BME280;4954;48.476;8.168;2024-03-08T10:37:44;97701.22;;;19.99;nan
9831;BME280;4954;48.476;8.168;2024-03-08T10:40:16;97697.13;;;19.49;nan
9831;BME280;4954;48.476;8.168;2024-03-08T10:42:51;97690.44;;;19.88;nan
9831;BME280;4954;48.476;8.168;2024-03-08T10:45:26;97687.00;;;20.31;nan
9831;BME280;4954;48.476;8.168;2024-03-08T10:48:06;97688.81;;;20.09;nan
9831;BME280;4954;48.476;8.168;2024-03-08T10:50:46;97683.25;;;20.39;nan
9831;BME280;4954;48.476;8.168;2024-03-08T10:53:17;97688.53;;;20.36;nan
9831;BME280;4954;48.476;8.168;2024-03-08T10:55:47;97681.28;;;19.81;nan
9831;BME280;4954;48.476;8.168;2024-03-08T10:58:19;97679.47;;;19.83;nan
9831;BME280;4954;48.476;8.168;2024-03-08T11:00:47;97680.97;;;19.67;nan
9831;BME280;4954;48.476;8.168;2024-03-08T11:03:45;97671.63;;;20.49;nan
9831;BME280;4954;48.476;8.168;2024-03-08T11:06:17;97673.66;;;20.61;nan
9831;BME280;4954;48.476;8.168;2024-03-08T11:08:48;97667.09;;;20.34;nan
9831;BME280;4954;48.476;8.168;2024-03-08T11:11:26;97659.16;;;19.96;nan
9831;BME280;4954;48.476;8.168;2024-03-08T11:13:56;97660.63;;;20.64;nan
9831;BME280;4954;48.476;8.168;2024-03-08T11:16:37;97655.38;;;20.86;nan
9831;BME280;4954;48.476;8.168;2024-03-08T11:19:25;97656.06;;;20.09;nan
9831;BME280;4954;48.476;8.168;2024-03-08T11:21:59;97658.69;;;20.69;nan
9831;BME280;4954;48.476;8.168;2024-03-08T11:24:28;97655.84;;;21.14;nan
9831;BME280;4954;48.476;8.168;2024-03-08T11:27:05;97647.41;;;21.66;nan
9831;BME280;4954;48.476;8.168;2024-03-08T11:29:38;97650.78;;;21.31;nan
9831;BME280;4954;48.476;8.168;2024-03-08T11:32:10;97644.06;;;20.88;nan
9831;BME280;4954;48.476;8.168;2024-03-08T11:34:40;97652.56;;;20.52;nan
9831;BME280;4954;48.476;8.168;2024-03-08T11:37:14;97645.63;;;20.52;nan
9831;BME280;4954;48.476;8.168;2024-03-08T11:39:47;97643.81;;;20.14;nan
9831;BME280;4954;48.476;8.168;2024-03-08T11:42:15;97633.03;;;20.03;nan
9831;BME280;4954;48.476;8.168;2024-03-08T11:44:42;97637.28;;;20.26;nan
9831;BME280;4954;48.476;8.168;2024-03-08T11:47:10;97639.47;;;20.35;nan
9831;BME280;4954;48.476;8.168;2024-03-08T11:49:37;97624.38;;;19.63;nan
9831;BME280;4954;48.476;8.168;2024-03-08T11:52:10;97621.16;;;19.99;nan
9831;BME280;4954;48.476;8.168;2024-03-08T11:54:40;97615.91;;;20.22;nan
9831;BME280;4954;48.476;8.168;2024-03-08T11:57:08;97611.06;;;19.93;nan
9831;BME280;4954;48.476;8.168;2024-03-08T11:59:36;97601.72;;;19.69;nan
9831;BME280;4954;48.476;8.168;2024-03-08T12:02:04;97598.47;;;20.27;nan
9831;BME280;4954;48.476;8.168;2024-03-08T12:04:32;97603.22;;;19.75;nan
9831;BME280;4954;48.476;8.168;2024-03-08T12:07:01;97595.41;;;19.98;nan
9831;BME280;4954;48.476;8.168;2024-03-08T12:09:28;97591.03;;;19.12;nan
9831;BME280;4954;48.476;8.168;2024-03-08T12:11:58;97583.09;;;18.95;nan
9831;BME280;4954;48.476;8.168;2024-03-08T12:14:25;97585.50;;;18.77;nan
9831;BME280;4954;48.476;8.168;2024-03-08T12:16:52;97582.16;;;18.75;nan
9831;BME280;4954;48.476;8.168;2024-03-08T12:19:19;97570.06;;;19.21;nan
9831;BME280;4954;48.476;8.168;2024-03-08T12:21:46;97566.69;;;19.19;nan
9831;BME280;4954;48.476;8.168;2024-03-08T12:24:16;97563.78;;;19.05;nan
9831;BME280;4954;48.476;8.168;2024-03-08T12:26:45;97558.25;;;18.93;nan
9831;BME280;4954;48.476;8.168;2024-03-08T12:29:16;97550.84;;;19.51;nan
9831;BME280;4954;48.476;8.168;2024-03-08T12:31:46;97547.59;;;19.46;nan
9831;BME280;4954;48.476;8.168;2024-03-08T12:34:16;97540.22;;;19.14;nan
9831;BME280;4954;48.476;8.168;2024-03-08T12:36:47;97533.69;;;19.06;nan
9831;BME280;4954;48.476;8.168;2024-03-08T12:39:16;97529.19;;;18.89;nan
9831;BME280;4954;48.476;8.168;2024-03-08T12:41:47;97526.94;;;18.80;nan
9831;BME280;4954;48.476;8.168;2024-03-08T12:44:18;97520.69;;;18.64;nan
9831;BME280;4954;48.476;8.168;2024-03-08T12:46:46;97525.13;;;18.36;nan
9831;BME280;4954;48.476;8.168;2024-03-08T12:49:14;97511.56;;;18.79;nan
9831;BME280;4954;48.476;8.168;2024-03-08T12:51:43;97511.13;;;18.45;nan
9831;BME280;4954;48.476;8.168;2024-03-08T12:54:10;97496.16;;;18.77;nan
9831;BME280;4954;48.476;8.168;2024-03-08T12:56:38;97492.66;;;18.55;nan
9831;BME280;4954;48.476;8.168;2024-03-08T12:59:06;97490.66;;;18.63;nan
9831;BME280;4954;48.476;8.168;2024-03-08T13:01:36;97485.97;;;18.96;nan
9831;BME280;4954;48.476;8.168;2024-03-08T13:04:04;97486.25;;;18.88;nan
9831;BME280;4954;48.476;8.168;2024-03-08T13:06:34;97483.25;;;18.77;nan
9831;BME280;4954;48.476;8.168;2024-03-08T13:09:01;97483.28;;;18.99;nan
9831;BME280;4954;48.476;8.168;2024-03-08T13:11:31;97476.44;;;18.76;nan
9831;BME280;4954;48.476;8.168;2024-03-08T13:14:02;97479.44;;;18.18;nan
9831;BME280;4954;48.476;8.168;2024-03-08T13:16:30;97480.84;;;17.53;nan
9831;BME280;4954;48.476;8.168;2024-03-08T13:18:59;97484.97;;;17.57;nan
9831;BME280;4954;48.476;8.168;2024-03-08T13:21:26;97470.44;;;17.56;nan
9831;BME280;4954;48.476;8.168;2024-03-08T13:23:55;97465.50;;;17.50;nan
9831;BME280;4954;48.476;8.168;2024-03-08T13:26:24;97464.06;;;17.43;nan
9831;BME280;4954;48.476;8.168;2024-03-08T13:28:55;97460.84;;;17.09;nan
9831;BME280;4954;48.476;8.168;2024-03-08T13:31:23;97460.31;;;16.98;nan
9831;BME280;4954;48.476;8.168;2024-03-08T13:33:50;97448.75;;;17.39;nan
9831;BME280;4954;48.476;8.168;2024-03-08T13:36:24;97442.25;;;17.27;nan
9831;BME280;4954;48.476;8.168;2024-03-08T13:38:54;97439.59;;;17.04;nan
9831;BME280;4954;48.476;8.168;2024-03-08T13:41:24;97422.97;;;17.14;nan
9831;BME280;4954;48.476;8.168;2024-03-08T13:43:51;97419.00;;;16.78;nan
9831;BME280;4954;48.476;8.168;2024-03-08T13:46:18;97413.50;;;16.34;nan
9831;BME280;4954;48.476;8.168;2024-03-08T13:48:45;97400.09;;;16.53;nan
9831;BME280;4954;48.476;8.168;2024-03-08T13:51:13;97401.47;;;16.34;nan
9831;BME280;4954;48.476;8.168;2024-03-08T13:53:44;97396.75;;;15.92;nan
9831;BME280;4954;48.476;8.168;2024-03-08T13:56:11;97391.31;;;15.72;nan
9831;BME280;4954;48.476;8.168;2024-03-08T13:58:38;97395.56;;;15.42;nan